Time;durP1;ratioP1;P1;durP2;ratioP2;P2;SDS_P1;SDS_P2;PMS_P1;PMS_P2;Temp;Humidity;BMP_temperature;BMP_pressure;BME280_temperature;BME280_humidity;BME280_pressure;Samples;Min_cycle;Max_cycle;Signal;HPM_P1;HPM_P2
2022/10/29 00:00:22;;;;;;;11.50;4.20;;;11.00;99.90;;;;;;4178744;28;20682;-66
2022/10/29 00:02:22;;;;;;;10.87;3.70;;;10.90;99.90;;;;;;4179212;28;20264;-66
2022/10/29 00:04:23;;;;;;;8.33;3.90;;;10.90;99.90;;;;;;4179195;28;20241;-66
2022/10/29 00:06:24;;;;;;;11.50;4.10;;;10.80;99.90;;;;;;4179232;28;20572;-65
2022/10/29 00:08:25;;;;;;;9.87;3.60;;;10.70;99.90;;;;;;4179450;28;20246;-66
2022/10/29 00:10:26;;;;;;;9.43;3.50;;;10.70;99.90;;;;;;4178969;28;20268;-66
2022/10/29 00:12:27;;;;;;;7.77;3.60;;;10.70;99.90;;;;;;4179265;28;20196;-66
2022/10/29 00:14:27;;;;;;;9.10;3.63;;;10.70;99.90;;;;;;4179434;28;20179;-68
2022/10/29 00:16:33;;;;;;;9.87;3.80;;;10.80;99.90;;;;;;4179066;28;20186;-66
2022/10/29 00:18:34;;;;;;;8.40;3.93;;;10.80;99.90;;;;;;4179071;28;20250;-66
2022/10/29 00:20:34;;;;;;;11.33;3.70;;;10.80;99.90;;;;;;4178724;28;20180;-66
2022/10/29 00:22:35;;;;;;;8.67;3.83;;;10.80;99.90;;;;;;4179012;28;20834;-66
2022/10/29 00:24:36;;;;;;;9.13;3.63;;;10.90;99.90;;;;;;4179083;28;20586;-66
2022/10/29 00:26:36;;;;;;;8.87;3.87;;;10.90;99.90;;;;;;4178932;28;20758;-66
2022/10/29 00:28:37;;;;;;;7.50;3.27;;;10.90;99.90;;;;;;4178884;28;20668;-66
2022/10/29 00:30:38;;;;;;;12.13;3.87;;;10.90;99.90;;;;;;4178369;28;20245;-66
2022/10/29 00:32:38;;;;;;;11.20;3.43;;;10.80;99.90;;;;;;4178600;28;20181;-66
2022/10/29 00:34:39;;;;;;;8.67;3.50;;;11.00;99.90;;;;;;4178615;28;20211;-66
2022/10/29 00:36:39;;;;;;;9.23;3.57;;;11.00;99.90;;;;;;4178818;28;20749;-66
2022/10/29 00:38:40;;;;;;;10.53;3.87;;;11.00;99.90;;;;;;4178695;28;20300;-66
2022/10/29 00:40:41;;;;;;;12.10;3.67;;;11.00;99.90;;;;;;4178068;28;20227;-66
2022/10/29 00:42:41;;;;;;;8.90;4.03;;;11.00;99.90;;;;;;4178708;28;20177;-66
2022/10/29 00:44:42;;;;;;;10.17;4.33;;;11.10;99.90;;;;;;4178575;28;20190;-66
2022/10/29 00:46:49;;;;;;;8.43;3.87;;;11.10;99.90;;;;;;4178944;28;20270;-66
2022/10/29 00:48:53;;;;;;;8.60;3.67;;;11.10;99.90;;;;;;4178852;28;20656;-66
2022/10/29 00:50:55;;;;;;;8.97;3.80;;;11.20;99.90;;;;;;4178088;28;20184;-66
2022/10/29 00:52:57;;;;;;;8.13;3.40;;;11.20;99.90;;;;;;4178925;28;20192;-65
2022/10/29 00:55:01;;;;;;;12.53;3.63;;;11.20;99.90;;;;;;4178685;28;20287;-66
2022/10/29 00:57:13;;;;;;;10.93;3.27;;;11.30;99.90;;;;;;4177475;28;20282;-66
2022/10/29 00:59:16;;;;;;;13.80;4.17;;;11.30;99.90;;;;;;4178833;28;20184;-66
2022/10/29 01:01:16;;;;;;;7.33;3.80;;;11.20;99.90;;;;;;4178563;28;20180;-66
2022/10/29 01:03:17;;;;;;;8.13;3.33;;;11.20;99.90;;;;;;4181876;28;20247;-66
2022/10/29 01:05:23;;;;;;;5.47;3.20;;;11.20;99.90;;;;;;4182313;28;20219;-66
2022/10/29 01:07:24;;;;;;;7.10;3.63;;;11.30;99.90;;;;;;4182354;28;20282;-66
2022/10/29 01:09:24;;;;;;;12.47;3.60;;;11.40;99.90;;;;;;4182081;28;20188;-66
2022/10/29 01:11:30;;;;;;;9.83;3.50;;;11.40;99.90;;;;;;4181542;28;20211;-66
2022/10/29 01:14:00;;;;;;;9.67;3.23;;;11.40;99.90;;;;;;4182123;28;20192;-66
2022/10/29 01:16:06;;;;;;;10.03;3.63;;;11.40;99.90;;;;;;4194622;28;20187;-66
2022/10/29 01:18:28;;;;;;;12.00;4.43;;;11.40;99.90;;;;;;4198614;28;20980;-66
2022/10/29 01:20:35;;;;;;;7.77;3.40;;;11.40;99.90;;;;;;4198020;28;20554;-66
2022/10/29 01:22:49;;;;;;;9.70;3.60;;;11.40;99.90;;;;;;4198831;28;20600;-66
2022/10/29 01:25:07;;;;;;;7.70;3.60;;;11.40;99.90;;;;;;4196945;28;20180;-66
2022/10/29 01:27:43;;;;;;;10.17;3.40;;;11.50;99.90;;;;;;4182061;28;20228;-66
2022/10/29 01:29:52;;;;;;;7.83;3.43;;;11.50;99.90;;;;;;4190986;28;20199;-66
2022/10/29 01:32:18;;;;;;;6.23;3.10;;;11.40;99.90;;;;;;4181224;28;20742;-66
2022/10/29 01:34:28;;;;;;;10.90;3.80;;;11.40;99.90;;;;;;4189319;28;20189;-66
2022/10/29 01:36:59;;;;;;;7.83;3.30;;;11.30;99.90;;;;;;4181677;28;20249;-66
2022/10/29 01:39:57;;;;;;;10.50;3.70;;;11.30;99.90;;;;;;4181955;28;20184;-66
2022/10/29 01:42:19;;;;;;;6.80;3.43;;;11.20;99.90;;;;;;4195990;28;20205;-66
2022/10/29 01:44:45;;;;;;;11.50;4.33;;;11.30;99.90;;;;;;4196015;28;20678;-66
2022/10/29 01:46:48;;;;;;;10.90;3.80;;;11.40;99.90;;;;;;4189631;28;20310;-66
2022/10/29 01:48:53;;;;;;;11.37;3.50;;;11.40;99.90;;;;;;4181554;28;20227;-66
2022/10/29 01:50:57;;;;;;;9.10;3.90;;;11.50;99.90;;;;;;4180900;28;20584;-66
2022/10/29 01:52:59;;;;;;;9.10;3.30;;;11.50;99.90;;;;;;4181499;28;20184;-66
2022/10/29 01:55:00;;;;;;;7.17;3.50;;;11.50;99.90;;;;;;4181582;28;20788;-66
2022/10/29 01:57:01;;;;;;;6.33;3.30;;;11.50;99.90;;;;;;4181306;28;20176;-66
2022/10/29 01:59:06;;;;;;;8.53;3.33;;;11.50;99.90;;;;;;4181375;28;20324;-66
2022/10/29 02:01:29;;;;;;;8.87;3.33;;;11.60;99.90;;;;;;4181044;28;20185;-66
2022/10/29 02:03:59;;;;;;;6.83;3.33;;;11.50;99.90;;;;;;4181515;28;20181;-66
2022/10/29 02:06:26;;;;;;;11.17;3.80;;;11.60;99.90;;;;;;4187803;28;20230;-66
2022/10/29 02:08:42;;;;;;;8.30;4.10;;;11.70;99.90;;;;;;4181089;28;20761;-66
2022/10/29 02:10:54;;;;;;;8.23;3.53;;;11.70;99.90;;;;;;4180992;28;20214;-66
2022/10/29 02:12:56;;;;;;;13.00;4.20;;;11.80;99.90;;;;;;4181277;28;20207;-66
2022/10/29 02:15:08;;;;;;;12.83;4.00;;;11.80;99.90;;;;;;4180738;28;20180;-67
2022/10/29 02:17:08;;;;;;;8.60;4.07;;;11.80;99.90;;;;;;4181360;28;20200;-66
2022/10/29 02:19:09;;;;;;;9.97;4.30;;;11.80;99.90;;;;;;4181522;28;20180;-66
2022/10/29 02:21:10;;;;;;;11.27;4.30;;;11.90;99.90;;;;;;4180624;28;20211;-65
2022/10/29 02:23:11;;;;;;;11.97;4.23;;;12.00;99.60;;;;;;4181121;28;20206;-66
2022/10/29 02:25:12;;;;;;;11.73;4.70;;;12.00;99.80;;;;;;4181340;28;20177;-66
2022/10/29 02:27:12;;;;;;;8.37;4.07;;;11.90;99.90;;;;;;4181056;28;20273;-66
2022/10/29 02:29:13;;;;;;;9.97;4.40;;;11.90;99.90;;;;;;4181108;28;20183;-66
2022/10/29 02:31:13;;;;;;;11.27;4.33;;;11.90;99.90;;;;;;4180255;28;20257;-66
2022/10/29 02:33:14;;;;;;;6.73;3.80;;;11.90;99.90;;;;;;4180971;28;20180;-66
2022/10/29 02:35:15;;;;;;;9.70;4.07;;;11.90;99.90;;;;;;4181162;28;20218;-66
2022/10/29 02:37:15;;;;;;;10.97;3.73;;;12.00;99.00;;;;;;4180876;28;20196;-66
2022/10/29 02:39:16;;;;;;;10.97;3.93;;;11.90;99.40;;;;;;4180838;28;20191;-66
2022/10/29 02:41:16;;;;;;;10.03;4.23;;;11.90;99.90;;;;;;4180168;28;20168;-66
2022/10/29 02:43:17;;;;;;;10.70;3.57;;;11.80;99.90;;;;;;4179557;28;20186;-66
2022/10/29 02:45:17;;;;;;;7.50;3.70;;;11.80;99.90;;;;;;4196912;28;20195;-66
2022/10/29 02:47:18;;;;;;;12.77;3.27;;;11.80;99.90;;;;;;4197098;28;20245;-66
2022/10/29 02:49:19;;;;;;;9.10;3.33;;;11.70;99.90;;;;;;4197171;28;20332;-66
2022/10/29 02:51:19;;;;;;;7.83;3.03;;;11.70;99.90;;;;;;4196611;28;20634;-65
2022/10/29 02:53:20;;;;;;;7.63;3.73;;;11.80;99.90;;;;;;4197310;28;20211;-65
2022/10/29 02:55:20;;;;;;;7.10;3.20;;;11.80;99.90;;;;;;4197425;28;20183;-66
2022/10/29 02:57:21;;;;;;;8.47;3.47;;;11.70;99.90;;;;;;4197091;28;20291;-68
2022/10/29 02:59:21;;;;;;;8.30;3.10;;;11.70;99.90;;;;;;4196014;28;20236;-66
2022/10/29 03:01:22;;;;;;;9.37;3.30;;;11.60;99.90;;;;;;4196259;28;20267;-66
2022/10/29 03:03:23;;;;;;;8.30;4.17;;;11.60;99.90;;;;;;4197200;28;20179;-66
2022/10/29 03:05:23;;;;;;;8.97;3.77;;;11.50;99.90;;;;;;4195628;28;20183;-66
2022/10/29 03:07:24;;;;;;;9.87;3.63;;;11.40;99.90;;;;;;4197199;28;20231;-66
2022/10/29 03:09:24;;;;;;;7.37;3.27;;;11.40;99.90;;;;;;4196910;28;20481;-66
2022/10/29 03:11:25;;;;;;;7.57;2.83;;;11.30;99.90;;;;;;4196290;28;20674;-66
2022/10/29 03:13:25;;;;;;;6.00;2.70;;;11.30;99.90;;;;;;4196850;28;20191;-66
2022/10/29 03:15:27;;;;;;;10.93;3.17;;;11.20;99.90;;;;;;4196854;28;20951;-66
2022/10/29 03:17:27;;;;;;;7.90;3.20;;;11.10;99.90;;;;;;4197258;28;20238;-66
2022/10/29 03:19:28;;;;;;;9.90;3.33;;;11.00;99.90;;;;;;4197319;28;20677;-66
2022/10/29 03:21:28;;;;;;;9.67;3.20;;;11.00;99.90;;;;;;4196311;28;20261;-67
2022/10/29 03:23:29;;;;;;;8.70;2.90;;;11.00;99.90;;;;;;4197048;28;20184;-67
2022/10/29 03:25:29;;;;;;;6.97;3.43;;;11.00;99.90;;;;;;4196507;28;20546;-65
2022/10/29 03:27:30;;;;;;;6.47;2.90;;;11.00;99.90;;;;;;4196803;28;20284;-65
2022/10/29 03:29:31;;;;;;;8.80;3.30;;;10.90;99.90;;;;;;4196765;28;20605;-65
2022/10/29 03:31:31;;;;;;;7.83;4.83;;;10.80;99.90;;;;;;4194296;28;20313;-65
2022/10/29 03:33:32;;;;;;;7.07;3.80;;;10.90;99.90;;;;;;4196626;28;20175;-65
2022/10/29 03:35:32;;;;;;;9.93;4.07;;;10.80;99.90;;;;;;4196894;28;20236;-67
2022/10/29 03:37:33;;;;;;;6.53;3.13;;;10.80;99.90;;;;;;4196622;28;20217;-67
2022/10/29 03:39:33;;;;;;;9.93;3.70;;;10.70;99.90;;;;;;4196636;28;20229;-67
2022/10/29 03:41:34;;;;;;;7.90;3.50;;;10.70;99.90;;;;;;4195926;28;20211;-67
2022/10/29 03:43:38;;;;;;;8.20;3.20;;;10.70;99.90;;;;;;4196627;28;20195;-69
2022/10/29 03:45:39;;;;;;;8.40;3.60;;;10.70;99.90;;;;;;4191480;28;20191;-67
2022/10/29 03:47:39;;;;;;;5.33;3.17;;;10.60;99.90;;;;;;4195459;28;20287;-67
2022/10/29 03:49:40;;;;;;;9.20;3.50;;;10.50;99.90;;;;;;4196406;28;20654;-67
2022/10/29 03:51:40;;;;;;;4.20;2.93;;;10.50;99.90;;;;;;4194301;28;20652;-67
2022/10/29 03:53:42;;;;;;;10.23;3.40;;;10.40;99.90;;;;;;4196370;28;20241;-67
2022/10/29 03:55:42;;;;;;;7.07;3.40;;;10.40;99.90;;;;;;4196163;28;20766;-67
2022/10/29 03:57:43;;;;;;;6.40;2.87;;;10.40;99.90;;;;;;4196241;28;20199;-67
2022/10/29 03:59:43;;;;;;;9.10;3.43;;;10.30;99.90;;;;;;4196135;28;20184;-67
2022/10/29 04:01:44;;;;;;;7.90;3.83;;;10.30;99.90;;;;;;4195553;28;20210;-67
2022/10/29 04:03:45;;;;;;;8.70;3.83;;;10.20;99.90;;;;;;4196706;28;20191;-67
2022/10/29 04:05:45;;;;;;;10.17;3.33;;;10.20;99.90;;;;;;4196152;28;20204;-67
2022/10/29 04:07:46;;;;;;;9.20;3.40;;;10.20;99.90;;;;;;4196191;28;20203;-67
2022/10/29 04:09:46;;;;;;;7.70;3.23;;;10.20;99.90;;;;;;4196309;28;20176;-67
2022/10/29 04:11:47;;;;;;;5.40;3.23;;;10.20;99.90;;;;;;4195973;28;20192;-67
2022/10/29 04:13:51;;;;;;;7.33;2.80;;;10.20;99.90;;;;;;4195774;28;20271;-67
2022/10/29 04:15:53;;;;;;;10.70;3.37;;;10.20;99.90;;;;;;4196294;28;20195;-67
2022/10/29 04:17:54;;;;;;;7.77;3.27;;;10.20;99.90;;;;;;4196439;28;20233;-67
2022/10/29 04:19:54;;;;;;;6.60;3.77;;;10.20;99.90;;;;;;4196162;28;20203;-67
2022/10/29 04:21:55;;;;;;;5.83;2.80;;;10.20;99.90;;;;;;4195344;28;20239;-67
2022/10/29 04:23:55;;;;;;;6.80;3.63;;;10.10;99.90;;;;;;4196272;28;20205;-67
2022/10/29 04:25:58;;;;;;;7.87;3.60;;;10.00;99.90;;;;;;4195770;28;20256;-67
2022/10/29 04:27:58;;;;;;;6.57;3.30;;;9.90;99.90;;;;;;4196021;28;20623;-67
2022/10/29 04:29:59;;;;;;;8.97;3.87;;;9.90;99.90;;;;;;4195989;28;20292;-67
2022/10/29 04:31:59;;;;;;;7.13;3.60;;;9.90;99.90;;;;;;4195597;28;20198;-67
2022/10/29 04:34:00;;;;;;;8.70;3.40;;;9.90;99.90;;;;;;4196060;28;20187;-67
2022/10/29 04:36:01;;;;;;;10.20;3.93;;;9.80;99.90;;;;;;4195663;28;20245;-64
2022/10/29 04:38:10;;;;;;;7.77;3.53;;;9.80;99.90;;;;;;4195255;28;20724;-66
2022/10/29 04:40:11;;;;;;;7.27;3.47;;;9.80;99.90;;;;;;4195335;28;20214;-67
2022/10/29 04:42:11;;;;;;;7.67;3.50;;;9.70;99.90;;;;;;4195915;28;20692;-66
2022/10/29 04:44:12;;;;;;;9.33;3.63;;;9.70;99.90;;;;;;4195865;28;20188;-66
2022/10/29 04:46:12;;;;;;;7.40;3.37;;;9.60;99.90;;;;;;4195658;28;20214;-67
2022/10/29 04:48:13;;;;;;;10.87;3.93;;;9.60;99.90;;;;;;4196392;28;20636;-66
2022/10/29 04:50:13;;;;;;;8.33;3.53;;;9.50;99.90;;;;;;4195439;28;20187;-66
2022/10/29 04:52:14;;;;;;;11.87;3.53;;;9.60;99.90;;;;;;4196256;28;20650;-67
2022/10/29 04:54:15;;;;;;;7.87;3.50;;;9.50;99.90;;;;;;4196275;28;20211;-66
2022/10/29 04:56:16;;;;;;;9.70;3.67;;;9.50;99.90;;;;;;4196001;28;20199;-66
2022/10/29 04:58:18;;;;;;;12.80;3.97;;;9.50;99.90;;;;;;4195729;28;20211;-66
2022/10/29 05:00:19;;;;;;;13.67;3.70;;;9.50;99.90;;;;;;4194990;28;20196;-66
2022/10/29 05:02:20;;;;;;;7.30;3.07;;;9.50;99.90;;;;;;4195632;28;20706;-66
2022/10/29 05:04:20;;;;;;;7.40;3.40;;;9.50;99.90;;;;;;4195328;28;20183;-66
2022/10/29 05:06:21;;;;;;;8.37;3.30;;;9.50;99.90;;;;;;4195430;28;20715;-66
2022/10/29 05:08:21;;;;;;;7.10;3.83;;;9.50;99.90;;;;;;4196034;28;20207;-66
2022/10/29 05:10:22;;;;;;;11.07;3.40;;;9.40;99.90;;;;;;4195006;28;20187;-70
2022/10/29 05:12:23;;;;;;;15.30;3.27;;;9.40;99.90;;;;;;4195586;28;20739;-66
2022/10/29 05:14:23;;;;;;;7.23;3.27;;;9.40;99.90;;;;;;4195715;28;20193;-66
2022/10/29 05:16:24;;;;;;;6.87;3.40;;;9.40;99.90;;;;;;4195557;28;20197;-67
2022/10/29 05:18:25;;;;;;;10.90;3.67;;;9.40;99.90;;;;;;4195731;28;20208;-66
2022/10/29 05:20:26;;;;;;;8.53;3.93;;;9.50;99.90;;;;;;4194830;28;20329;-66
2022/10/29 05:22:26;;;;;;;7.17;3.30;;;9.40;99.90;;;;;;4195678;28;20272;-66
2022/10/29 05:24:27;;;;;;;6.70;3.57;;;9.50;99.90;;;;;;4195455;28;20199;-66
2022/10/29 05:26:31;;;;;;;6.87;3.10;;;9.40;99.90;;;;;;4195295;28;20218;-66
2022/10/29 05:28:31;;;;;;;8.67;3.70;;;9.40;99.90;;;;;;4195355;28;20202;-66
2022/10/29 05:30:32;;;;;;;13.00;4.50;;;9.40;99.90;;;;;;4180881;28;20681;-66
2022/10/29 05:32:33;;;;;;;6.97;3.50;;;9.40;99.90;;;;;;4178507;28;20235;-66
2022/10/29 05:34:33;;;;;;;9.30;4.30;;;9.40;99.90;;;;;;4178893;28;20180;-66
2022/10/29 05:36:34;;;;;;;4.87;2.97;;;9.40;99.90;;;;;;4178427;28;20204;-66
2022/10/29 05:38:35;;;;;;;7.63;3.47;;;9.30;99.90;;;;;;4194244;28;20646;-66
2022/10/29 05:40:35;;;;;;;11.23;3.20;;;9.30;99.90;;;;;;4178021;28;20206;-66
2022/10/29 05:42:37;;;;;;;7.67;3.97;;;9.30;99.90;;;;;;4178866;28;20194;-66
2022/10/29 05:44:37;;;;;;;8.90;3.83;;;9.20;99.90;;;;;;4178773;28;20183;-66
2022/10/29 05:46:38;;;;;;;9.03;3.93;;;9.20;99.90;;;;;;4178397;28;20354;-66
2022/10/29 05:48:38;;;;;;;8.37;2.93;;;9.10;99.90;;;;;;4180381;28;20691;-66
2022/10/29 05:50:39;;;;;;;8.50;3.37;;;9.10;99.90;;;;;;4180917;28;20191;-66
2022/10/29 05:52:40;;;;;;;12.37;3.90;;;9.10;99.90;;;;;;4181431;28;20180;-66
2022/10/29 05:54:40;;;;;;;8.07;3.57;;;9.10;99.90;;;;;;4181651;28;20591;-66
2022/10/29 05:56:41;;;;;;;10.67;3.43;;;9.10;99.90;;;;;;4181412;28;20683;-66
2022/10/29 05:58:41;;;;;;;9.63;3.20;;;9.10;99.90;;;;;;4180882;28;20294;-66
2022/10/29 06:00:44;;;;;;;7.93;3.70;;;9.10;99.90;;;;;;4182425;28;20195;-66
2022/10/29 06:02:44;;;;;;;9.97;3.27;;;9.00;99.90;;;;;;4197133;28;20184;-66
2022/10/29 06:04:45;;;;;;;10.83;3.60;;;9.00;99.90;;;;;;4198062;28;20216;-66
2022/10/29 06:06:46;;;;;;;8.77;3.47;;;9.00;99.90;;;;;;4197916;28;20267;-66
2022/10/29 06:08:46;;;;;;;9.00;3.57;;;9.00;99.90;;;;;;4197649;28;20216;-67
2022/10/29 06:10:47;;;;;;;13.87;4.57;;;9.00;99.90;;;;;;4197060;28;20673;-67
2022/10/29 06:12:48;;;;;;;5.70;3.20;;;9.00;99.90;;;;;;4198148;28;20200;-66
2022/10/29 06:14:48;;;;;;;8.50;3.60;;;9.10;99.90;;;;;;4198607;28;20270;-66
2022/10/29 06:16:49;;;;;;;8.40;5.07;;;9.10;99.90;;;;;;4198044;28;20680;-66
2022/10/29 06:18:49;;;;;;;15.10;7.33;;;9.20;99.90;;;;;;4198482;28;20197;-66
2022/10/29 06:20:50;;;;;;;16.83;12.97;;;9.20;99.90;;;;;;4197466;28;20202;-67
2022/10/29 06:22:57;;;;;;;17.17;12.93;;;9.20;99.90;;;;;;4197863;28;20211;-65
2022/10/29 06:24:57;;;;;;;29.83;16.03;;;9.30;99.90;;;;;;4197680;28;20559;-66
2022/10/29 06:26:58;;;;;;;14.47;10.63;;;9.20;99.90;;;;;;4197377;28;20207;-66
2022/10/29 06:28:59;;;;;;;13.60;8.13;;;9.30;99.90;;;;;;4196457;28;20281;-66
2022/10/29 06:30:59;;;;;;;13.13;7.40;;;9.20;99.90;;;;;;4196955;28;20190;-66
2022/10/29 06:33:01;;;;;;;13.40;6.90;;;9.30;99.90;;;;;;4197533;28;20262;-66
2022/10/29 06:35:02;;;;;;;12.73;6.40;;;9.30;99.90;;;;;;4197616;28;20179;-67
2022/10/29 06:37:03;;;;;;;11.63;5.97;;;9.40;99.90;;;;;;4197416;28;20179;-66
2022/10/29 06:39:03;;;;;;;10.37;5.60;;;9.40;99.90;;;;;;4197164;28;20184;-66
2022/10/29 06:41:04;;;;;;;11.80;5.40;;;9.40;99.90;;;;;;4196849;28;20186;-66
2022/10/29 06:43:08;;;;;;;7.03;4.00;;;9.50;99.90;;;;;;4197622;28;20676;-66
2022/10/29 06:45:09;;;;;;;10.73;4.40;;;9.60;99.90;;;;;;4197221;28;20281;-67
2022/10/29 06:47:09;;;;;;;10.27;3.87;;;9.60;99.90;;;;;;4197027;28;20243;-67
2022/10/29 06:49:10;;;;;;;6.90;3.77;;;9.70;99.90;;;;;;4197199;28;20181;-66
2022/10/29 06:51:10;;;;;;;8.27;4.07;;;9.70;99.90;;;;;;4196576;28;20190;-66
2022/10/29 06:53:12;;;;;;;9.63;3.90;;;9.70;99.90;;;;;;4197039;28;20175;-67
2022/10/29 06:55:13;;;;;;;6.67;3.60;;;9.70;99.90;;;;;;4196809;28;20184;-66
2022/10/29 06:57:14;;;;;;;10.03;4.23;;;9.80;99.90;;;;;;4196795;28;20218;-66
2022/10/29 06:59:14;;;;;;;6.47;3.63;;;9.80;99.90;;;;;;4196731;28;20786;-66
2022/10/29 07:01:15;;;;;;;11.47;4.23;;;9.70;99.90;;;;;;4195751;28;20214;-66
2022/10/29 07:03:17;;;;;;;8.63;3.77;;;9.70;99.90;;;;;;4196883;28;20183;-67
2022/10/29 07:05:18;;;;;;;7.53;4.13;;;9.80;99.90;;;;;;4197082;28;20194;-67
2022/10/29 07:07:19;;;;;;;10.23;3.93;;;9.80;99.90;;;;;;4196403;28;20227;-67
2022/10/29 07:09:19;;;;;;;11.33;3.90;;;9.90;99.90;;;;;;4196964;28;20576;-66
2022/10/29 07:11:20;;;;;;;9.40;4.37;;;9.90;99.90;;;;;;4196100;28;20667;-66
2022/10/29 07:13:20;;;;;;;9.67;4.10;;;9.90;99.90;;;;;;4196774;28;20184;-66
2022/10/29 07:15:21;;;;;;;11.17;4.50;;;10.00;99.90;;;;;;4197021;28;20184;-66
2022/10/29 07:17:22;;;;;;;11.80;3.60;;;10.10;99.90;;;;;;4196686;28;20203;-66
2022/10/29 07:19:22;;;;;;;9.60;3.40;;;10.10;99.90;;;;;;4196742;28;20218;-66
2022/10/29 07:21:23;;;;;;;7.90;3.53;;;10.20;99.90;;;;;;4196041;28;20569;-67
2022/10/29 07:23:23;;;;;;;7.27;3.10;;;10.30;99.90;;;;;;4190258;28;20212;-66
2022/10/29 07:25:24;;;;;;;7.73;3.90;;;10.30;99.90;;;;;;4179874;28;20188;-67
2022/10/29 07:27:26;;;;;;;7.03;2.77;;;10.40;99.90;;;;;;4179805;28;20217;-67
2022/10/29 07:29:27;;;;;;;8.47;3.67;;;10.40;99.90;;;;;;4179996;28;20219;-66
2022/10/29 07:31:29;;;;;;;6.67;3.17;;;10.50;99.90;;;;;;4179460;28;20191;-66
2022/10/29 07:33:30;;;;;;;6.73;3.33;;;10.60;99.90;;;;;;4194947;28;20176;-67
2022/10/29 07:35:32;;;;;;;10.73;3.37;;;10.60;99.90;;;;;;4180093;28;20678;-67
2022/10/29 07:37:33;;;;;;;7.37;3.20;;;10.80;99.90;;;;;;4179870;28;20248;-67
2022/10/29 07:39:33;;;;;;;8.23;3.50;;;10.90;99.90;;;;;;4179363;28;20267;-67
2022/10/29 07:41:34;;;;;;;6.47;3.57;;;10.90;99.90;;;;;;4179014;28;20184;-67
2022/10/29 07:43:35;;;;;;;9.07;4.20;;;11.00;99.90;;;;;;4194767;28;20278;-67
2022/10/29 07:45:35;;;;;;;6.33;3.30;;;11.10;99.90;;;;;;4179689;28;20195;-67
2022/10/29 07:47:36;;;;;;;11.10;4.00;;;11.20;99.90;;;;;;4195000;28;20204;-67
2022/10/29 07:49:36;;;;;;;9.70;3.70;;;11.30;99.90;;;;;;4179634;28;20647;-67
2022/10/29 07:51:37;;;;;;;11.70;3.67;;;11.40;99.90;;;;;;4178841;28;20183;-67
2022/10/29 07:53:37;;;;;;;5.80;3.73;;;11.50;99.90;;;;;;4179404;28;20173;-66
2022/10/29 07:55:38;;;;;;;11.30;7.57;;;11.60;99.90;;;;;;4179210;28;20191;-67
2022/10/29 07:57:38;;;;;;;11.03;5.70;;;11.70;99.90;;;;;;4179683;28;20563;-67
2022/10/29 07:59:39;;;;;;;13.53;8.83;;;11.80;99.90;;;;;;4179406;28;20180;-67
2022/10/29 08:01:40;;;;;;;12.73;7.47;;;11.90;99.90;;;;;;4178624;28;20183;-67
2022/10/29 08:03:40;;;;;;;12.37;7.50;;;12.00;99.90;;;;;;4179239;28;20188;-66
2022/10/29 08:05:41;;;;;;;10.90;6.83;;;12.10;99.90;;;;;;4179261;28;20304;-66
2022/10/29 08:07:41;;;;;;;13.77;7.03;;;12.20;99.90;;;;;;4179293;28;20618;-67
2022/10/29 08:09:42;;;;;;;13.43;5.60;;;12.40;99.90;;;;;;4179312;28;20180;-66
2022/10/29 08:11:42;;;;;;;9.33;5.87;;;12.50;99.90;;;;;;4177547;28;20184;-67
2022/10/29 08:13:43;;;;;;;12.50;6.20;;;12.60;99.90;;;;;;4179254;28;20607;-67
2022/10/29 08:15:45;;;;;;;12.03;6.33;;;12.80;99.90;;;;;;4179692;28;20176;-66
2022/10/29 08:17:46;;;;;;;17.53;6.27;;;13.00;99.20;;;;;;4179819;28;20208;-67
2022/10/29 08:19:46;;;;;;;9.23;5.37;;;13.10;99.10;;;;;;4179234;28;20713;-67
2022/10/29 08:21:47;;;;;;;12.13;6.17;;;13.20;98.20;;;;;;4178573;28;20176;-66
2022/10/29 08:23:47;;;;;;;8.17;5.57;;;13.50;98.20;;;;;;4179082;28;20184;-67
2022/10/29 08:25:48;;;;;;;11.70;4.83;;;13.70;96.60;;;;;;4179169;28;20205;-67
2022/10/29 08:27:59;;;;;;;9.13;4.53;;;13.80;96.30;;;;;;4179076;28;20246;-67
2022/10/29 08:30:00;;;;;;;6.90;4.00;;;14.00;96.80;;;;;;4179173;28;20168;-67
2022/10/29 08:32:00;;;;;;;9.07;4.13;;;14.10;95.60;;;;;;4178403;28;20593;-67
2022/10/29 08:34:01;;;;;;;4.90;3.33;;;14.40;94.90;;;;;;4179030;28;20225;-67
2022/10/29 08:36:02;;;;;;;6.80;3.27;;;14.50;94.70;;;;;;4179033;28;20187;-67
2022/10/29 08:38:02;;;;;;;7.23;3.40;;;14.80;94.20;;;;;;4179026;28;20329;-67
2022/10/29 08:40:03;;;;;;;10.37;3.90;;;14.90;93.70;;;;;;4178737;28;20184;-67
2022/10/29 08:42:06;;;;;;;12.30;5.53;;;14.90;93.70;;;;;;4178327;28;20187;-67
2022/10/29 08:44:26;;;;;;;10.37;5.10;;;15.10;93.20;;;;;;4178893;28;20192;-67
2022/10/29 08:46:46;;;;;;;9.90;4.73;;;15.30;92.40;;;;;;4178969;28;20229;-67
2022/10/29 08:48:55;;;;;;;9.07;5.13;;;15.50;92.30;;;;;;4178871;28;20199;-66
2022/10/29 08:51:12;;;;;;;8.87;5.37;;;15.90;91.00;;;;;;4178313;28;20578;-67
2022/10/29 08:53:20;;;;;;;11.63;5.50;;;16.00;90.30;;;;;;4179383;28;20195;-67
2022/10/29 08:55:35;;;;;;;13.10;4.77;;;16.40;88.30;;;;;;4178957;28;20171;-67
2022/10/29 08:57:44;;;;;;;8.83;4.03;;;16.40;88.20;;;;;;4177777;28;20257;-67
2022/10/29 09:00:17;;;;;;;9.07;4.63;;;16.40;88.80;;;;;;4177676;28;20207;-67
2022/10/29 09:02:18;;;;;;;11.33;4.70;;;16.80;87.80;;;;;;4179082;28;20176;-67
2022/10/29 09:04:27;;;;;;;11.00;5.13;;;16.90;88.80;;;;;;4177719;28;20234;-67
2022/10/29 09:07:09;;;;;;;11.27;4.70;;;17.30;85.50;;;;;;4179097;28;20253;-67
2022/10/29 09:09:34;;;;;;;7.83;3.73;;;17.40;86.40;;;;;;4178089;28;20216;-67
2022/10/29 09:11:54;;;;;;;11.00;4.90;;;17.50;88.70;;;;;;4177396;28;20160;-67
2022/10/29 09:14:18;;;;;;;8.87;4.73;;;18.00;86.10;;;;;;4177782;28;20172;-67
2022/10/29 09:16:28;;;;;;;9.13;3.77;;;18.70;82.80;;;;;;4191039;28;20194;-67
2022/10/29 09:19:06;;;;;;;11.47;5.03;;;19.00;82.40;;;;;;4194107;28;20195;-67
2022/10/29 09:21:54;;;;;;;10.93;5.17;;;20.10;76.00;;;;;;4194590;28;20168;-67
2022/10/29 09:24:04;;;;;;;10.17;4.23;;;20.20;74.10;;;;;;4181739;28;20173;-67
2022/10/29 09:26:55;;;;;;;11.03;4.37;;;20.70;72.50;;;;;;4196728;28;20199;-67
2022/10/29 09:29:27;;;;;;;13.83;4.87;;;20.80;71.50;;;;;;4198371;28;20187;-67
2022/10/29 09:31:40;;;;;;;10.40;5.07;;;21.70;67.30;;;;;;4196428;28;20627;-67
2022/10/29 09:33:43;;;;;;;8.60;4.87;;;22.00;66.10;;;;;;4198203;28;20160;-67
2022/10/29 09:35:47;;;;;;;18.83;5.30;;;22.00;66.30;;;;;;4197039;28;20571;-67
2022/10/29 09:37:55;;;;;;;11.00;4.80;;;22.70;64.10;;;;;;4196947;28;20203;-67
2022/10/29 09:39:57;;;;;;;14.13;4.60;;;23.10;63.20;;;;;;4197927;28;20250;-67
2022/10/29 09:42:04;;;;;;;14.23;5.00;;;23.60;59.30;;;;;;4197291;28;20213;-65
2022/10/29 09:44:33;;;;;;;9.60;4.83;;;23.90;58.50;;;;;;4198179;28;20582;-71
2022/10/29 09:47:20;;;;;;;9.97;4.83;;;24.40;55.60;;;;;;4197098;28;20755;-66
2022/10/29 09:49:56;;;;;;;8.93;4.20;;;24.70;54.20;;;;;;4197956;28;20163;-66
2022/10/29 09:52:23;;;;;;;5.37;3.63;;;24.80;55.40;;;;;;4196061;28;20174;-65
2022/10/29 09:54:28;;;;;;;9.00;3.47;;;24.60;57.20;;;;;;4196681;28;20517;-66
2022/10/29 09:56:29;;;;;;;6.97;2.67;;;25.60;55.20;;;;;;4196542;28;20533;-66
2022/10/29 09:58:29;;;;;;;9.77;2.93;;;26.00;53.70;;;;;;4196581;28;20199;-66
2022/10/29 10:00:31;;;;;;;10.07;3.10;;;26.20;50.80;;;;;;4197256;28;20266;-66
2022/10/29 10:03:09;;;;;;;7.13;3.03;;;25.90;53.30;;;;;;4197848;28;20680;-65
2022/10/29 10:05:22;;;;;;;10.57;3.20;;;25.70;53.90;;;;;;4197557;28;20635;-66
2022/10/29 10:07:23;;;;;;;7.77;2.73;;;25.40;54.70;;;;;;4197768;28;20214;-66
2022/10/29 10:09:23;;;;;;;8.93;2.73;;;25.90;55.00;;;;;;4197990;28;20184;-65
2022/10/29 10:11:38;;;;;;;13.30;2.73;;;26.40;53.00;;;;;;4197145;28;20236;-66
2022/10/29 10:13:59;;;;;;;12.47;2.57;;;27.20;49.40;;;;;;4196299;28;20272;-66
2022/10/29 10:16:04;;;;;;;10.70;3.00;;;27.30;49.10;;;;;;4198004;28;20317;-66
2022/10/29 10:18:17;;;;;;;8.70;2.60;;;27.10;46.00;;;;;;4198237;28;20681;-66
2022/10/29 10:20:37;;;;;;;11.70;3.20;;;27.00;47.90;;;;;;4197083;28;20240;-66
2022/10/29 10:22:45;;;;;;;7.63;3.07;;;26.80;44.60;;;;;;4197690;28;20203;-66
2022/10/29 10:24:46;;;;;;;7.43;2.67;;;27.20;46.50;;;;;;4196549;28;20174;-66
2022/10/29 10:26:47;;;;;;;13.93;3.07;;;27.50;45.10;;;;;;4196422;28;20573;-66
2022/10/29 10:29:21;;;;;;;5.65;2.70;;;27.20;46.10;;;;;;4197684;28;20572;-65
2022/10/29 10:31:22;;;;;;;11.35;3.15;;;28.10;45.60;;;;;;4196714;28;20186;-66
2022/10/29 10:33:25;;;;;;;9.70;3.25;;;28.40;43.00;;;;;;4197232;28;20180;-66
2022/10/29 10:35:29;;;;;;;8.43;2.72;;;28.40;44.30;;;;;;4196190;28;20184;-66
2022/10/29 10:37:32;;;;;;;7.72;3.28;;;28.60;42.20;;;;;;4190143;28;20223;-66
2022/10/29 10:39:43;;;;;;;9.98;3.50;;;28.90;41.70;;;;;;4180899;28;20267;-67
2022/10/29 10:41:44;;;;;;;9.15;3.15;;;29.30;41.20;;;;;;4179903;28;20192;-66
2022/10/29 10:43:46;;;;;;;10.20;3.10;;;29.50;40.50;;;;;;4180806;28;20188;-67
2022/10/29 10:45:59;;;;;;;8.15;2.97;;;29.80;41.10;;;;;;4180367;28;20319;-67
2022/10/29 10:48:00;;;;;;;8.57;2.78;;;30.10;38.10;;;;;;4179364;28;20199;-66